sensor_id;sensor_type;location;lat;lon;timestamp;P1;durP1;ratioP1;P2;durP2;ratioP2
21634;SDS011;10979;48.306;9.830;2022-11-27T00:00:20;0.50;;;0.50;;
21634;SDS011;10979;48.306;9.830;2022-11-27T00:02:46;0.50;;;0.50;;
21634;SDS011;10979;48.306;9.830;2022-11-27T00:05:12;0.50;;;0.50;;
21634;SDS011;10979;48.306;9.830;2022-11-27T00:07:37;0.40;;;0.40;;
21634;SDS011;10979;48.306;9.830;2022-11-27T00:10:03;0.50;;;0.50;;
21634;SDS011;10979;48.306;9.830;2022-11-27T00:12:29;0.50;;;0.50;;
21634;SDS011;10979;48.306;9.830;2022-11-27T00:14:55;0.50;;;0.50;;
21634;SDS011;10979;48.306;9.830;2022-11-27T00:17:20;0.50;;;0.50;;
21634;SDS011;10979;48.306;9.830;2022-11-27T00:19:46;0.50;;;0.50;;
21634;SDS011;10979;48.306;9.830;2022-11-27T00:22:11;0.50;;;0.50;;
21634;SDS011;10979;48.306;9.830;2022-11-27T00:24:37;0.50;;;0.50;;
21634;SDS011;10979;48.306;9.830;2022-11-27T00:27:03;0.50;;;0.50;;
21634;SDS011;10979;48.306;9.830;2022-11-27T00:29:28;0.50;;;0.50;;
21634;SDS011;10979;48.306;9.830;2022-11-27T00:31:54;0.45;;;0.45;;
21634;SDS011;10979;48.306;9.830;2022-11-27T00:34:20;0.50;;;0.50;;
21634;SDS011;10979;48.306;9.830;2022-11-27T00:36:49;0.50;;;0.50;;
21634;SDS011;10979;48.306;9.830;2022-11-27T00:39:15;0.50;;;0.50;;
21634;SDS011;10979;48.306;9.830;2022-11-27T00:41:41;0.50;;;0.50;;
21634;SDS011;10979;48.306;9.830;2022-11-27T00:44:06;0.40;;;0.40;;
21634;SDS011;10979;48.306;9.830;2022-11-27T00:46:32;0.50;;;0.50;;
21634;SDS011;10979;48.306;9.830;2022-11-27T00:48:59;0.50;;;0.50;;
21634;SDS011;10979;48.306;9.830;2022-11-27T00:51:27;0.45;;;0.45;;
21634;SDS011;10979;48.306;9.830;2022-11-27T00:53:53;0.50;;;0.50;;
21634;SDS011;10979;48.306;9.830;2022-11-27T00:56:38;0.50;;;0.50;;
21634;SDS011;10979;48.306;9.830;2022-11-27T00:59:04;0.50;;;0.50;;
21634;SDS011;10979;48.306;9.830;2022-11-27T01:01:32;0.45;;;0.45;;
21634;SDS011;10979;48.306;9.830;2022-11-27T01:04:04;0.50;;;0.50;;
21634;SDS011;10979;48.306;9.830;2022-11-27T01:06:30;0.47;;;0.47;;
21634;SDS011;10979;48.306;9.830;2022-11-27T01:08:56;0.40;;;0.40;;
21634;SDS011;10979;48.306;9.830;2022-11-27T01:11:24;0.50;;;0.50;;
21634;SDS011;10979;48.306;9.830;2022-11-27T01:13:52;0.40;;;0.40;;
21634;SDS011;10979;48.306;9.830;2022-11-27T01:16:21;0.50;;;0.50;;
21634;SDS011;10979;48.306;9.830;2022-11-27T01:18:48;0.40;;;0.40;;
21634;SDS011;10979;48.306;9.830;2022-11-27T01:21:16;0.50;;;0.50;;
21634;SDS011;10979;48.306;9.830;2022-11-27T01:23:43;0.40;;;0.40;;
21634;SDS011;10979;48.306;9.830;2022-11-27T01:26:10;0.45;;;0.45;;
21634;SDS011;10979;48.306;9.830;2022-11-27T01:28:36;0.40;;;0.40;;
21634;SDS011;10979;48.306;9.830;2022-11-27T01:31:08;0.40;;;0.40;;
21634;SDS011;10979;48.306;9.830;2022-11-27T01:33:36;0.50;;;0.50;;
21634;SDS011;10979;48.306;9.830;2022-11-27T01:36:02;0.40;;;0.40;;
21634;SDS011;10979;48.306;9.830;2022-11-27T01:38:29;0.40;;;0.40;;
21634;SDS011;10979;48.306;9.830;2022-11-27T01:43:57;0.40;;;0.40;;
21634;SDS011;10979;48.306;9.830;2022-11-27T01:46:41;0.50;;;0.50;;
21634;SDS011;10979;48.306;9.830;2022-11-27T01:51:40;0.50;;;0.50;;
21634;SDS011;10979;48.306;9.830;2022-11-27T01:54:38;0.50;;;0.50;;
21634;SDS011;10979;48.306;9.830;2022-11-27T01:57:14;0.40;;;0.40;;
21634;SDS011;10979;48.306;9.830;2022-11-27T01:59:42;0.50;;;0.50;;
21634;SDS011;10979;48.306;9.830;2022-11-27T02:02:09;0.40;;;0.40;;
21634;SDS011;10979;48.306;9.830;2022-11-27T02:04:35;0.50;;;0.50;;
21634;SDS011;10979;48.306;9.830;2022-11-27T02:07:00;0.40;;;0.40;;
21634;SDS011;10979;48.306;9.830;2022-11-27T02:09:27;0.40;;;0.40;;
21634;SDS011;10979;48.306;9.830;2022-11-27T02:12:06;0.50;;;0.50;;
21634;SDS011;10979;48.306;9.830;2022-11-27T02:17:33;0.50;;;0.50;;
21634;SDS011;10979;48.306;9.830;2022-11-27T02:29:17;0.50;;;0.50;;
21634;SDS011;10979;48.306;9.830;2022-11-27T02:34:33;0.50;;;0.50;;
21634;SDS011;10979;48.306;9.830;2022-11-27T02:37:21;0.40;;;0.40;;
21634;SDS011;10979;48.306;9.830;2022-11-27T02:40:08;0.40;;;0.40;;
21634;SDS011;10979;48.306;9.830;2022-11-27T02:42:52;0.50;;;0.50;;
21634;SDS011;10979;48.306;9.830;2022-11-27T02:45:25;0.50;;;0.50;;
21634;SDS011;10979;48.306;9.830;2022-11-27T02:47:57;0.40;;;0.40;;
21634;SDS011;10979;48.306;9.830;2022-11-27T02:50:24;0.40;;;0.40;;
21634;SDS011;10979;48.306;9.830;2022-11-27T02:52:52;0.50;;;0.50;;
21634;SDS011;10979;48.306;9.830;2022-11-27T02:55:22;0.40;;;0.40;;
21634;SDS011;10979;48.306;9.830;2022-11-27T02:57:52;0.40;;;0.40;;
21634;SDS011;10979;48.306;9.830;2022-11-27T03:00:20;0.40;;;0.40;;
21634;SDS011;10979;48.306;9.830;2022-11-27T03:02:53;0.50;;;0.50;;
21634;SDS011;10979;48.306;9.830;2022-11-27T03:05:21;0.43;;;0.43;;
21634;SDS011;10979;48.306;9.830;2022-11-27T03:07:51;0.40;;;0.40;;
21634;SDS011;10979;48.306;9.830;2022-11-27T03:10:26;0.40;;;0.40;;
21634;SDS011;10979;48.306;9.830;2022-11-27T03:12:55;0.50;;;0.50;;
21634;SDS011;10979;48.306;9.830;2022-11-27T03:15:22;0.40;;;0.40;;
21634;SDS011;10979;48.306;9.830;2022-11-27T03:18:26;0.40;;;0.40;;
21634;SDS011;10979;48.306;9.830;2022-11-27T03:20:45;0.40;;;0.40;;
21634;SDS011;10979;48.306;9.830;2022-11-27T03:23:15;0.40;;;0.40;;
21634;SDS011;10979;48.306;9.830;2022-11-27T03:25:40;0.40;;;0.40;;
21634;SDS011;10979;48.306;9.830;2022-11-27T03:28:07;0.40;;;0.40;;
21634;SDS011;10979;48.306;9.830;2022-11-27T03:30:34;0.40;;;0.40;;
21634;SDS011;10979;48.306;9.830;2022-11-27T03:32:59;0.43;;;0.43;;
21634;SDS011;10979;48.306;9.830;2022-11-27T03:35:26;0.40;;;0.40;;
21634;SDS011;10979;48.306;9.830;2022-11-27T03:37:52;0.47;;;0.47;;
21634;SDS011;10979;48.306;9.830;2022-11-27T03:40:18;0.40;;;0.40;;
21634;SDS011;10979;48.306;9.830;2022-11-27T03:42:57;0.50;;;0.50;;
21634;SDS011;10979;48.306;9.830;2022-11-27T03:45:36;0.40;;;0.40;;
21634;SDS011;10979;48.306;9.830;2022-11-27T03:48:22;0.40;;;0.40;;
21634;SDS011;10979;48.306;9.830;2022-11-27T03:56:06;0.50;;;0.50;;
21634;SDS011;10979;48.306;9.830;2022-11-27T03:58:43;0.50;;;0.50;;
21634;SDS011;10979;48.306;9.830;2022-11-27T04:01:20;0.40;;;0.40;;
21634;SDS011;10979;48.306;9.830;2022-11-27T04:03:48;0.40;;;0.40;;
21634;SDS011;10979;48.306;9.830;2022-11-27T04:06:14;0.45;;;0.45;;
21634;SDS011;10979;48.306;9.830;2022-11-27T04:08:39;0.50;;;0.50;;
21634;SDS011;10979;48.306;9.830;2022-11-27T04:11:06;0.50;;;0.50;;
21634;SDS011;10979;48.306;9.830;2022-11-27T04:13:32;0.40;;;0.40;;
21634;SDS011;10979;48.306;9.830;2022-11-27T04:15:59;0.40;;;0.40;;
21634;SDS011;10979;48.306;9.830;2022-11-27T04:18:25;0.40;;;0.40;;
21634;SDS011;10979;48.306;9.830;2022-11-27T04:20:51;0.50;;;0.50;;
21634;SDS011;10979;48.306;9.830;2022-11-27T04:23:16;0.50;;;0.50;;
21634;SDS011;10979;48.306;9.830;2022-11-27T04:25:42;0.40;;;0.40;;
21634;SDS011;10979;48.306;9.830;2022-11-27T04:28:07;0.40;;;0.40;;
21634;SDS011;10979;48.306;9.830;2022-11-27T04:30:33;0.50;;;0.50;;
21634;SDS011;10979;48.306;9.830;2022-11-27T04:32:59;0.40;;;0.40;;
21634;SDS011;10979;48.306;9.830;2022-11-27T04:35:24;0.40;;;0.40;;
21634;SDS011;10979;48.306;9.830;2022-11-27T04:37:50;0.40;;;0.40;;
21634;SDS011;10979;48.306;9.830;2022-11-27T04:40:15;0.40;;;0.40;;
21634;SDS011;10979;48.306;9.830;2022-11-27T04:42:41;0.40;;;0.40;;
21634;SDS011;10979;48.306;9.830;2022-11-27T04:45:07;0.40;;;0.40;;
21634;SDS011;10979;48.306;9.830;2022-11-27T04:47:33;0.40;;;0.40;;
21634;SDS011;10979;48.306;9.830;2022-11-27T04:49:58;0.40;;;0.40;;
21634;SDS011;10979;48.306;9.830;2022-11-27T04:52:24;0.50;;;0.50;;
21634;SDS011;10979;48.306;9.830;2022-11-27T04:54:49;0.40;;;0.40;;
21634;SDS011;10979;48.306;9.830;2022-11-27T04:57:15;0.40;;;0.40;;
21634;SDS011;10979;48.306;9.830;2022-11-27T04:59:41;0.40;;;0.40;;
21634;SDS011;10979;48.306;9.830;2022-11-27T05:02:06;0.40;;;0.40;;
21634;SDS011;10979;48.306;9.830;2022-11-27T05:04:32;0.40;;;0.40;;
21634;SDS011;10979;48.306;9.830;2022-11-27T05:06:58;0.40;;;0.40;;
21634;SDS011;10979;48.306;9.830;2022-11-27T05:09:23;0.40;;;0.40;;
21634;SDS011;10979;48.306;9.830;2022-11-27T05:11:49;0.40;;;0.40;;
21634;SDS011;10979;48.306;9.830;2022-11-27T05:14:14;0.40;;;0.40;;
21634;SDS011;10979;48.306;9.830;2022-11-27T05:16:53;0.50;;;0.50;;
21634;SDS011;10979;48.306;9.830;2022-11-27T05:19:20;0.50;;;0.50;;
21634;SDS011;10979;48.306;9.830;2022-11-27T05:21:48;0.50;;;0.50;;
21634;SDS011;10979;48.306;9.830;2022-11-27T05:24:15;0.45;;;0.45;;
21634;SDS011;10979;48.306;9.830;2022-11-27T05:26:42;0.50;;;0.50;;
21634;SDS011;10979;48.306;9.830;2022-11-27T05:29:07;0.40;;;0.40;;
21634;SDS011;10979;48.306;9.830;2022-11-27T05:31:35;0.40;;;0.40;;
21634;SDS011;10979;48.306;9.830;2022-11-27T05:34:00;0.47;;;0.47;;
21634;SDS011;10979;48.306;9.830;2022-11-27T05:36:27;0.40;;;0.40;;
21634;SDS011;10979;48.306;9.830;2022-11-27T05:38:53;0.40;;;0.40;;
21634;SDS011;10979;48.306;9.830;2022-11-27T05:41:18;0.43;;;0.43;;
21634;SDS011;10979;48.306;9.830;2022-11-27T05:43:44;0.45;;;0.45;;
21634;SDS011;10979;48.306;9.830;2022-11-27T05:46:11;0.40;;;0.40;;
21634;SDS011;10979;48.306;9.830;2022-11-27T05:48:39;0.50;;;0.50;;
21634;SDS011;10979;48.306;9.830;2022-11-27T05:51:05;0.40;;;0.40;;
21634;SDS011;10979;48.306;9.830;2022-11-27T05:53:31;0.43;;;0.43;;
21634;SDS011;10979;48.306;9.830;2022-11-27T05:56:04;0.40;;;0.40;;
21634;SDS011;10979;48.306;9.830;2022-11-27T05:58:31;0.40;;;0.40;;
21634;SDS011;10979;48.306;9.830;2022-11-27T06:00:57;0.40;;;0.40;;
21634;SDS011;10979;48.306;9.830;2022-11-27T06:03:23;0.40;;;0.40;;
21634;SDS011;10979;48.306;9.830;2022-11-27T06:05:49;0.40;;;0.40;;
21634;SDS011;10979;48.306;9.830;2022-11-27T06:08:15;0.40;;;0.40;;
21634;SDS011;10979;48.306;9.830;2022-11-27T06:10:40;0.40;;;0.40;;
21634;SDS011;10979;48.306;9.830;2022-11-27T06:13:06;0.40;;;0.40;;
21634;SDS011;10979;48.306;9.830;2022-11-27T06:15:32;0.47;;;0.47;;
21634;SDS011;10979;48.306;9.830;2022-11-27T06:17:57;0.50;;;0.50;;
21634;SDS011;10979;48.306;9.830;2022-11-27T06:20:23;0.40;;;0.40;;
21634;SDS011;10979;48.306;9.830;2022-11-27T06:22:49;0.40;;;0.40;;
21634;SDS011;10979;48.306;9.830;2022-11-27T06:25:15;0.50;;;0.50;;
21634;SDS011;10979;48.306;9.830;2022-11-27T06:27:40;0.50;;;0.50;;
21634;SDS011;10979;48.306;9.830;2022-11-27T06:30:06;0.50;;;0.50;;
21634;SDS011;10979;48.306;9.830;2022-11-27T06:32:32;0.50;;;0.50;;
21634;SDS011;10979;48.306;9.830;2022-11-27T06:34:58;0.50;;;0.50;;
21634;SDS011;10979;48.306;9.830;2022-11-27T06:37:23;0.50;;;0.50;;
21634;SDS011;10979;48.306;9.830;2022-11-27T06:39:49;0.40;;;0.40;;
21634;SDS011;10979;48.306;9.830;2022-11-27T06:42:14;0.50;;;0.50;;
21634;SDS011;10979;48.306;9.830;2022-11-27T06:44:40;0.40;;;0.40;;
21634;SDS011;10979;48.306;9.830;2022-11-27T06:47:06;0.50;;;0.50;;
21634;SDS011;10979;48.306;9.830;2022-11-27T06:49:32;0.43;;;0.43;;
21634;SDS011;10979;48.306;9.830;2022-11-27T06:51:58;0.40;;;0.40;;
21634;SDS011;10979;48.306;9.830;2022-11-27T06:54:23;0.40;;;0.40;;
21634;SDS011;10979;48.306;9.830;2022-11-27T06:56:49;0.40;;;0.40;;
21634;SDS011;10979;48.306;9.830;2022-11-27T06:59:15;0.40;;;0.40;;
21634;SDS011;10979;48.306;9.830;2022-11-27T07:01:41;0.40;;;0.40;;
21634;SDS011;10979;48.306;9.830;2022-11-27T07:04:08;0.40;;;0.40;;
21634;SDS011;10979;48.306;9.830;2022-11-27T07:06:35;0.40;;;0.40;;
21634;SDS011;10979;48.306;9.830;2022-11-27T07:09:01;0.40;;;0.40;;
21634;SDS011;10979;48.306;9.830;2022-11-27T07:11:27;0.40;;;0.40;;
21634;SDS011;10979;48.306;9.830;2022-11-27T07:13:54;0.40;;;0.40;;
21634;SDS011;10979;48.306;9.830;2022-11-27T07:16:21;0.40;;;0.40;;
21634;SDS011;10979;48.306;9.830;2022-11-27T07:18:51;0.40;;;0.40;;
21634;SDS011;10979;48.306;9.830;2022-11-27T07:21:18;0.40;;;0.40;;
21634;SDS011;10979;48.306;9.830;2022-11-27T07:23:44;0.40;;;0.40;;
21634;SDS011;10979;48.306;9.830;2022-11-27T07:26:11;0.40;;;0.40;;
21634;SDS011;10979;48.306;9.830;2022-11-27T07:28:42;0.40;;;0.40;;
21634;SDS011;10979;48.306;9.830;2022-11-27T07:31:08;0.40;;;0.40;;
21634;SDS011;10979;48.306;9.830;2022-11-27T07:33:35;0.50;;;0.50;;
21634;SDS011;10979;48.306;9.830;2022-11-27T07:36:06;0.50;;;0.50;;
21634;SDS011;10979;48.306;9.830;2022-11-27T07:38:35;0.40;;;0.40;;
21634;SDS011;10979;48.306;9.830;2022-11-27T07:41:01;0.40;;;0.40;;
21634;SDS011;10979;48.306;9.830;2022-11-27T07:43:28;0.50;;;0.50;;
21634;SDS011;10979;48.306;9.830;2022-11-27T07:45:54;0.47;;;0.47;;
21634;SDS011;10979;48.306;9.830;2022-11-27T07:48:19;0.40;;;0.40;;
21634;SDS011;10979;48.306;9.830;2022-11-27T07:50:45;0.47;;;0.47;;
21634;SDS011;10979;48.306;9.830;2022-11-27T07:53:11;0.50;;;0.50;;
21634;SDS011;10979;48.306;9.830;2022-11-27T07:55:37;0.40;;;0.40;;
21634;SDS011;10979;48.306;9.830;2022-11-27T07:58:03;0.40;;;0.40;;
21634;SDS011;10979;48.306;9.830;2022-11-27T08:00:29;0.50;;;0.50;;
21634;SDS011;10979;48.306;9.830;2022-11-27T08:02:55;0.40;;;0.40;;
21634;SDS011;10979;48.306;9.830;2022-11-27T08:05:20;0.40;;;0.40;;
21634;SDS011;10979;48.306;9.830;2022-11-27T08:07:46;0.50;;;0.50;;
21634;SDS011;10979;48.306;9.830;2022-11-27T08:10:11;0.40;;;0.40;;
21634;SDS011;10979;48.306;9.830;2022-11-27T08:12:37;0.40;;;0.40;;
21634;SDS011;10979;48.306;9.830;2022-11-27T08:15:02;0.40;;;0.40;;
21634;SDS011;10979;48.306;9.830;2022-11-27T08:17:29;0.40;;;0.40;;
21634;SDS011;10979;48.306;9.830;2022-11-27T08:19:55;0.40;;;0.40;;
21634;SDS011;10979;48.306;9.830;2022-11-27T08:22:20;0.50;;;0.50;;
21634;SDS011;10979;48.306;9.830;2022-11-27T08:24:46;0.40;;;0.40;;
21634;SDS011;10979;48.306;9.830;2022-11-27T08:27:12;0.40;;;0.40;;
21634;SDS011;10979;48.306;9.830;2022-11-27T08:29:38;0.40;;;0.40;;
21634;SDS011;10979;48.306;9.830;2022-11-27T08:32:04;0.40;;;0.40;;
21634;SDS011;10979;48.306;9.830;2022-11-27T08:34:30;0.40;;;0.40;;
21634;SDS011;10979;48.306;9.830;2022-11-27T08:36:56;0.40;;;0.40;;
21634;SDS011;10979;48.306;9.830;2022-11-27T08:39:21;0.40;;;0.40;;
21634;SDS011;10979;48.306;9.830;2022-11-27T08:41:47;0.40;;;0.40;;
21634;SDS011;10979;48.306;9.830;2022-11-27T08:44:12;0.40;;;0.40;;
21634;SDS011;10979;48.306;9.830;2022-11-27T08:46:38;0.40;;;0.40;;
21634;SDS011;10979;48.306;9.830;2022-11-27T08:49:04;0.40;;;0.40;;
21634;SDS011;10979;48.306;9.830;2022-11-27T08:51:29;0.40;;;0.40;;
21634;SDS011;10979;48.306;9.830;2022-11-27T08:53:55;0.40;;;0.40;;
21634;SDS011;10979;48.306;9.830;2022-11-27T08:56:21;0.40;;;0.40;;
21634;SDS011;10979;48.306;9.830;2022-11-27T08:58:49;0.32;;;0.32;;
21634;SDS011;10979;48.306;9.830;2022-11-27T09:01:17;0.40;;;0.40;;
21634;SDS011;10979;48.306;9.830;2022-11-27T09:03:45;0.40;;;0.40;;
21634;SDS011;10979;48.306;9.830;2022-11-27T09:06:13;0.30;;;0.30;;
21634;SDS011;10979;48.306;9.830;2022-11-27T09:08:41;0.40;;;0.40;;
21634;SDS011;10979;48.306;9.830;2022-11-27T09:11:07;0.40;;;0.40;;
21634;SDS011;10979;48.306;9.830;2022-11-27T09:13:34;0.40;;;0.40;;
21634;SDS011;10979;48.306;9.830;2022-11-27T09:16:02;0.40;;;0.40;;
21634;SDS011;10979;48.306;9.830;2022-11-27T09:18:29;0.40;;;0.40;;
21634;SDS011;10979;48.306;9.830;2022-11-27T09:20:55;0.40;;;0.40;;
21634;SDS011;10979;48.306;9.830;2022-11-27T09:23:29;0.40;;;0.40;;
21634;SDS011;10979;48.306;9.830;2022-11-27T09:26:02;0.40;;;0.40;;
21634;SDS011;10979;48.306;9.830;2022-11-27T09:28:29;0.40;;;0.40;;
21634;SDS011;10979;48.306;9.830;2022-11-27T09:30:56;0.40;;;0.40;;
21634;SDS011;10979;48.306;9.830;2022-11-27T09:33:24;0.40;;;0.40;;
21634;SDS011;10979;48.306;9.830;2022-11-27T09:35:50;0.40;;;0.40;;
21634;SDS011;10979;48.306;9.830;2022-11-27T09:38:16;0.40;;;0.40;;
21634;SDS011;10979;48.306;9.830;2022-11-27T09:40:44;0.40;;;0.40;;
21634;SDS011;10979;48.306;9.830;2022-11-27T09:43:13;0.40;;;0.40;;
21634;SDS011;10979;48.306;9.830;2022-11-27T09:45:58;0.40;;;0.40;;
21634;SDS011;10979;48.306;9.830;2022-11-27T09:51:00;0.40;;;0.40;;
21634;SDS011;10979;48.306;9.830;2022-11-27T09:56:15;0.40;;;0.40;;
21634;SDS011;10979;48.306;9.830;2022-11-27T09:59:02;0.50;;;0.50;;
21634;SDS011;10979;48.306;9.830;2022-11-27T10:01:29;0.30;;;0.30;;
21634;SDS011;10979;48.306;9.830;2022-11-27T10:03:56;0.40;;;0.40;;
21634;SDS011;10979;48.306;9.830;2022-11-27T10:06:30;0.40;;;0.40;;
21634;SDS011;10979;48.306;9.830;2022-11-27T10:19:54;0.30;;;0.30;;
21634;SDS011;10979;48.306;9.830;2022-11-27T10:31:03;0.30;;;0.30;;
21634;SDS011;10979;48.306;9.830;2022-11-27T10:34:04;0.38;;;0.38;;
21634;SDS011;10979;48.306;9.830;2022-11-27T10:36:43;0.30;;;0.30;;
21634;SDS011;10979;48.306;9.830;2022-11-27T10:39:16;0.30;;;0.30;;
21634;SDS011;10979;48.306;9.830;2022-11-27T10:41:53;0.40;;;0.40;;
21634;SDS011;10979;48.306;9.830;2022-11-27T10:44:30;0.40;;;0.40;;
21634;SDS011;10979;48.306;9.830;2022-11-27T10:47:03;0.30;;;0.30;;
21634;SDS011;10979;48.306;9.830;2022-11-27T10:49:31;0.40;;;0.40;;
21634;SDS011;10979;48.306;9.830;2022-11-27T10:51:59;0.30;;;0.30;;
21634;SDS011;10979;48.306;9.830;2022-11-27T10:54:25;0.30;;;0.30;;
21634;SDS011;10979;48.306;9.830;2022-11-27T10:57:00;0.30;;;0.30;;
21634;SDS011;10979;48.306;9.830;2022-11-27T10:59:42;0.30;;;0.30;;
21634;SDS011;10979;48.306;9.830;2022-11-27T11:02:25;0.40;;;0.40;;
21634;SDS011;10979;48.306;9.830;2022-11-27T11:04:53;0.30;;;0.30;;
21634;SDS011;10979;48.306;9.830;2022-11-27T11:07:23;0.30;;;0.30;;
21634;SDS011;10979;48.306;9.830;2022-11-27T11:09:52;0.35;;;0.35;;
21634;SDS011;10979;48.306;9.830;2022-11-27T11:12:19;0.30;;;0.30;;
21634;SDS011;10979;48.306;9.830;2022-11-27T11:14:49;0.30;;;0.30;;
21634;SDS011;10979;48.306;9.830;2022-11-27T11:17:23;0.40;;;0.40;;
21634;SDS011;10979;48.306;9.830;2022-11-27T11:19:50;0.30;;;0.30;;
21634;SDS011;10979;48.306;9.830;2022-11-27T11:22:16;0.30;;;0.30;;
21634;SDS011;10979;48.306;9.830;2022-11-27T11:24:45;0.30;;;0.30;;
21634;SDS011;10979;48.306;9.830;2022-11-27T11:27:17;0.30;;;0.30;;
21634;SDS011;10979;48.306;9.830;2022-11-27T11:29:54;0.30;;;0.30;;
21634;SDS011;10979;48.306;9.830;2022-11-27T11:32:24;0.30;;;0.30;;
21634;SDS011;10979;48.306;9.830;2022-11-27T11:34:54;0.30;;;0.30;;
21634;SDS011;10979;48.306;9.830;2022-11-27T11:37:25;0.30;;;0.30;;
21634;SDS011;10979;48.306;9.830;2022-11-27T11:40:35;0.30;;;0.30;;
21634;SDS011;10979;48.306;9.830;2022-11-27T11:42:51;0.35;;;0.35;;
21634;SDS011;10979;48.306;9.830;2022-11-27T11:45:23;0.30;;;0.30;;
21634;SDS011;10979;48.306;9.830;2022-11-27T11:47:51;0.30;;;0.30;;
21634;SDS011;10979;48.306;9.830;2022-11-27T11:50:27;0.30;;;0.30;;
21634;SDS011;10979;48.306;9.830;2022-11-27T12:04:13;0.30;;;0.30;;
21634;SDS011;10979;48.306;9.830;2022-11-27T12:07:22;0.30;;;0.30;;
21634;SDS011;10979;48.306;9.830;2022-11-27T12:12:56;0.30;;;0.30;;
21634;SDS011;10979;48.306;9.830;2022-11-27T12:18:39;0.40;;;0.40;;
21634;SDS011;10979;48.306;9.830;2022-11-27T12:21:24;0.30;;;0.30;;
21634;SDS011;10979;48.306;9.830;2022-11-27T12:24:04;0.30;;;0.30;;
21634;SDS011;10979;48.306;9.830;2022-11-27T12:29:42;0.32;;;0.32;;
21634;SDS011;10979;48.306;9.830;2022-11-27T12:32:49;0.30;;;0.30;;
21634;SDS011;10979;48.306;9.830;2022-11-27T12:35:51;0.30;;;0.30;;
21634;SDS011;10979;48.306;9.830;2022-11-27T12:38:23;0.30;;;0.30;;
21634;SDS011;10979;48.306;9.830;2022-11-27T12:43:55;0.30;;;0.30;;
21634;SDS011;10979;48.306;9.830;2022-11-27T12:49:19;0.30;;;0.30;;
21634;SDS011;10979;48.306;9.830;2022-11-27T12:52:20;0.30;;;0.30;;
21634;SDS011;10979;48.306;9.830;2022-11-27T12:55:09;0.30;;;0.30;;
21634;SDS011;10979;48.306;9.830;2022-11-27T12:57:43;0.40;;;0.40;;
21634;SDS011;10979;48.306;9.830;2022-11-27T13:00:29;0.30;;;0.30;;
21634;SDS011;10979;48.306;9.830;2022-11-27T13:03:20;0.40;;;0.40;;
21634;SDS011;10979;48.306;9.830;2022-11-27T13:05:48;0.32;;;0.32;;
21634;SDS011;10979;48.306;9.830;2022-11-27T13:08:58;0.30;;;0.30;;
21634;SDS011;10979;48.306;9.830;2022-11-27T13:11:34;0.40;;;0.40;;
21634;SDS011;10979;48.306;9.830;2022-11-27T13:14:07;0.30;;;0.30;;
21634;SDS011;10979;48.306;9.830;2022-11-27T13:16:39;0.30;;;0.30;;
21634;SDS011;10979;48.306;9.830;2022-11-27T13:19:52;0.32;;;0.32;;
21634;SDS011;10979;48.306;9.830;2022-11-27T13:22:07;0.30;;;0.30;;
21634;SDS011;10979;48.306;9.830;2022-11-27T13:24:36;0.30;;;0.30;;
21634;SDS011;10979;48.306;9.830;2022-11-27T13:27:06;0.40;;;0.40;;
21634;SDS011;10979;48.306;9.830;2022-11-27T13:29:53;0.30;;;0.30;;
21634;SDS011;10979;48.306;9.830;2022-11-27T13:32:21;0.38;;;0.38;;
21634;SDS011;10979;48.306;9.830;2022-11-27T13:34:49;0.30;;;0.30;;
21634;SDS011;10979;48.306;9.830;2022-11-27T13:37:22;0.30;;;0.30;;
21634;SDS011;10979;48.306;9.830;2022-11-27T13:39:57;0.40;;;0.40;;
21634;SDS011;10979;48.306;9.830;2022-11-27T13:42:32;0.30;;;0.30;;
21634;SDS011;10979;48.306;9.830;2022-11-27T13:45:00;0.30;;;0.30;;
21634;SDS011;10979;48.306;9.830;2022-11-27T13:47:35;0.30;;;0.30;;
21634;SDS011;10979;48.306;9.830;2022-11-27T13:50:05;0.30;;;0.30;;
21634;SDS011;10979;48.306;9.830;2022-11-27T13:55:32;0.40;;;0.40;;
21634;SDS011;10979;48.306;9.830;2022-11-27T13:58:03;0.30;;;0.30;;
21634;SDS011;10979;48.306;9.830;2022-11-27T14:00:37;0.30;;;0.30;;
21634;SDS011;10979;48.306;9.830;2022-11-27T14:03:05;0.30;;;0.30;;
21634;SDS011;10979;48.306;9.830;2022-11-27T14:10:54;0.30;;;0.30;;
21634;SDS011;10979;48.306;9.830;2022-11-27T14:13:31;0.30;;;0.30;;
21634;SDS011;10979;48.306;9.830;2022-11-27T14:16:00;0.30;;;0.30;;
21634;SDS011;10979;48.306;9.830;2022-11-27T14:18:27;0.30;;;0.30;;
21634;SDS011;10979;48.306;9.830;2022-11-27T14:21:01;0.30;;;0.30;;
21634;SDS011;10979;48.306;9.830;2022-11-27T14:28:42;0.30;;;0.30;;
21634;SDS011;10979;48.306;9.830;2022-11-27T14:31:24;0.30;;;0.30;;
21634;SDS011;10979;48.306;9.830;2022-11-27T14:33:59;0.30;;;0.30;;
21634;SDS011;10979;48.306;9.830;2022-11-27T14:36:29;0.40;;;0.40;;
21634;SDS011;10979;48.306;9.830;2022-11-27T14:38:59;0.30;;;0.30;;
21634;SDS011;10979;48.306;9.830;2022-11-27T14:41:26;0.30;;;0.30;;
21634;SDS011;10979;48.306;9.830;2022-11-27T14:44:03;0.30;;;0.30;;
21634;SDS011;10979;48.306;9.830;2022-11-27T14:46:30;0.40;;;0.40;;
21634;SDS011;10979;48.306;9.830;2022-11-27T14:48:59;0.30;;;0.30;;
21634;SDS011;10979;48.306;9.830;2022-11-27T14:51:26;0.30;;;0.30;;
21634;SDS011;10979;48.306;9.830;2022-11-27T14:53:55;0.30;;;0.30;;
21634;SDS011;10979;48.306;9.830;2022-11-27T14:56:25;0.30;;;0.30;;
21634;SDS011;10979;48.306;9.830;2022-11-27T14:58:55;0.40;;;0.40;;
21634;SDS011;10979;48.306;9.830;2022-11-27T15:01:25;0.40;;;0.40;;
21634;SDS011;10979;48.306;9.830;2022-11-27T15:06:34;0.40;;;0.40;;
21634;SDS011;10979;48.306;9.830;2022-11-27T15:09:04;0.40;;;0.40;;
21634;SDS011;10979;48.306;9.830;2022-11-27T15:11:30;0.30;;;0.30;;
21634;SDS011;10979;48.306;9.830;2022-11-27T15:13:56;0.30;;;0.30;;
21634;SDS011;10979;48.306;9.830;2022-11-27T15:16:26;0.40;;;0.40;;
21634;SDS011;10979;48.306;9.830;2022-11-27T15:18:59;0.40;;;0.40;;
21634;SDS011;10979;48.306;9.830;2022-11-27T15:21:28;0.30;;;0.30;;
21634;SDS011;10979;48.306;9.830;2022-11-27T15:23:59;0.40;;;0.40;;
21634;SDS011;10979;48.306;9.830;2022-11-27T15:26:32;0.40;;;0.40;;
21634;SDS011;10979;48.306;9.830;2022-11-27T15:29:23;0.32;;;0.32;;
21634;SDS011;10979;48.306;9.830;2022-11-27T15:32:00;0.40;;;0.40;;
21634;SDS011;10979;48.306;9.830;2022-11-27T15:34:28;0.40;;;0.40;;
21634;SDS011;10979;48.306;9.830;2022-11-27T15:36:55;0.40;;;0.40;;
21634;SDS011;10979;48.306;9.830;2022-11-27T15:39:37;0.40;;;0.40;;
21634;SDS011;10979;48.306;9.830;2022-11-27T15:42:09;0.40;;;0.40;;
21634;SDS011;10979;48.306;9.830;2022-11-27T15:44:35;0.30;;;0.30;;
21634;SDS011;10979;48.306;9.830;2022-11-27T15:47:01;0.40;;;0.40;;
21634;SDS011;10979;48.306;9.830;2022-11-27T15:49:28;0.38;;;0.38;;
21634;SDS011;10979;48.306;9.830;2022-11-27T15:51:54;0.40;;;0.40;;
21634;SDS011;10979;48.306;9.830;2022-11-27T15:54:20;0.30;;;0.30;;
21634;SDS011;10979;48.306;9.830;2022-11-27T15:56:46;0.40;;;0.40;;
21634;SDS011;10979;48.306;9.830;2022-11-27T15:59:12;0.40;;;0.40;;
21634;SDS011;10979;48.306;9.830;2022-11-27T16:01:38;0.30;;;0.30;;
21634;SDS011;10979;48.306;9.830;2022-11-27T16:04:04;0.40;;;0.40;;
21634;SDS011;10979;48.306;9.830;2022-11-27T16:06:30;0.40;;;0.40;;
21634;SDS011;10979;48.306;9.830;2022-11-27T16:08:56;0.40;;;0.40;;
21634;SDS011;10979;48.306;9.830;2022-11-27T16:11:23;0.40;;;0.40;;
21634;SDS011;10979;48.306;9.830;2022-11-27T16:13:50;0.40;;;0.40;;
21634;SDS011;10979;48.306;9.830;2022-11-27T16:16:16;0.40;;;0.40;;
21634;SDS011;10979;48.306;9.830;2022-11-27T16:18:41;0.40;;;0.40;;
21634;SDS011;10979;48.306;9.830;2022-11-27T16:21:08;0.40;;;0.40;;
21634;SDS011;10979;48.306;9.830;2022-11-27T16:23:36;0.35;;;0.35;;
21634;SDS011;10979;48.306;9.830;2022-11-27T16:26:02;0.40;;;0.40;;
21634;SDS011;10979;48.306;9.830;2022-11-27T16:28:29;0.40;;;0.40;;
21634;SDS011;10979;48.306;9.830;2022-11-27T16:30:56;0.40;;;0.40;;
21634;SDS011;10979;48.306;9.830;2022-11-27T16:33:29;0.40;;;0.40;;
21634;SDS011;10979;48.306;9.830;2022-11-27T16:36:02;0.40;;;0.40;;